createdAt,value
2017-07-29T00:00:27.889Z,15.47
2017-07-29T00:02:55.654Z,15.52
2017-07-29T00:05:23.594Z,15.48
2017-07-29T00:07:51.414Z,15.35
2017-07-29T00:10:19.231Z,15.47
2017-07-29T00:12:47.179Z,15.45
2017-07-29T00:15:15.019Z,15.50
2017-07-29T00:17:42.805Z,15.44
2017-07-29T00:20:10.662Z,15.40
2017-07-29T00:22:38.407Z,15.32
2017-07-29T00:25:06.312Z,15.23
2017-07-29T00:27:34.107Z,15.14
2017-07-29T00:30:01.935Z,15.11
2017-07-29T00:32:29.819Z,15.05
2017-07-29T00:34:57.608Z,15.07
2017-07-29T00:37:26.345Z,15.05
2017-07-29T00:39:54.169Z,14.92
2017-07-29T00:42:22.053Z,14.95
2017-07-29T00:44:50.928Z,14.92
2017-07-29T00:47:18.735Z,14.90
2017-07-29T00:49:46.605Z,14.86
2017-07-29T00:52:14.314Z,14.89
2017-07-29T00:54:42.427Z,14.82
2017-07-29T00:57:10.194Z,14.66
2017-07-29T00:59:38.016Z,14.66
2017-07-29T01:02:05.866Z,14.71
2017-07-29T01:04:33.667Z,14.59
2017-07-29T01:07:01.605Z,14.51
2017-07-29T01:09:30.477Z,14.48
2017-07-29T01:11:58.437Z,14.58
2017-07-29T01:14:26.241Z,14.46
2017-07-29T01:16:53.998Z,14.39
2017-07-29T01:19:21.922Z,14.44
2017-07-29T01:21:49.728Z,14.44
2017-07-29T01:24:17.524Z,14.33
2017-07-29T01:26:45.391Z,14.34
2017-07-29T01:29:13.184Z,14.36
2017-07-29T01:31:41.096Z,14.27
2017-07-29T01:34:08.919Z,14.32
2017-07-29T01:36:36.818Z,14.31
2017-07-29T01:39:04.819Z,14.24
2017-07-29T01:41:32.712Z,14.23
2017-07-29T01:44:00.503Z,14.23
2017-07-29T01:46:28.240Z,14.17
2017-07-29T01:48:56.170Z,14.14
2017-07-29T01:51:24.345Z,14.14
2017-07-29T01:53:52.248Z,14.04
2017-07-29T01:56:20.196Z,13.89
2017-07-29T01:58:48.025Z,13.92
2017-07-29T02:01:15.943Z,13.97
2017-07-29T02:03:43.808Z,13.99
2017-07-29T02:06:11.700Z,14.02
2017-07-29T02:08:39.592Z,14.03
2017-07-29T02:11:07.334Z,14.07
2017-07-29T02:13:35.170Z,14.04
2017-07-29T02:16:02.883Z,13.93
2017-07-29T02:18:30.728Z,13.92
2017-07-29T02:20:58.438Z,13.87
2017-07-29T02:23:26.269Z,13.77
2017-07-29T02:25:54.134Z,13.73
2017-07-29T02:28:22.039Z,13.65
2017-07-29T02:30:49.740Z,13.80
2017-07-29T02:33:17.470Z,13.75
2017-07-29T02:35:45.449Z,13.58
2017-07-29T02:38:13.298Z,13.56
2017-07-29T02:40:41.003Z,13.49
2017-07-29T02:43:08.887Z,13.54
2017-07-29T02:45:36.772Z,13.46
2017-07-29T02:48:04.706Z,13.41
2017-07-29T02:50:32.503Z,13.47
2017-07-29T02:53:00.322Z,13.46
2017-07-29T02:55:28.102Z,13.46
2017-07-29T02:57:55.952Z,13.43
2017-07-29T03:00:23.860Z,13.54
2017-07-29T03:02:51.747Z,13.64
2017-07-29T03:05:19.569Z,13.57
2017-07-29T03:07:47.468Z,13.56
2017-07-29T03:10:15.394Z,13.56
2017-07-29T03:12:43.161Z,13.56
2017-07-29T03:15:10.964Z,13.60
2017-07-29T03:17:38.769Z,13.62
2017-07-29T03:20:06.638Z,13.51
2017-07-29T03:22:34.419Z,13.47
2017-07-29T03:25:02.201Z,13.56
2017-07-29T03:27:30.103Z,13.41
2017-07-29T03:29:58.052Z,13.51
2017-07-29T03:32:25.918Z,13.60
2017-07-29T03:34:53.772Z,13.62
2017-07-29T03:37:21.551Z,13.71
2017-07-29T03:39:49.263Z,13.75
2017-07-29T03:42:17.146Z,13.77
2017-07-29T03:44:44.922Z,13.81
2017-07-29T03:47:12.948Z,13.68
2017-07-29T03:49:41.176Z,13.58
2017-07-29T03:52:08.916Z,13.59
2017-07-29T03:54:36.737Z,13.64
2017-07-29T03:57:04.595Z,13.63
2017-07-29T03:59:32.461Z,13.57
2017-07-29T04:02:00.264Z,13.56
2017-07-29T04:04:28.093Z,13.53
2017-07-29T04:06:56.054Z,13.53
2017-07-29T04:09:23.923Z,13.57
2017-07-29T04:11:51.660Z,13.59
2017-07-29T04:14:19.482Z,13.53
2017-07-29T04:16:47.375Z,13.41
2017-07-29T04:19:15.102Z,13.48
2017-07-29T04:21:42.888Z,13.61
2017-07-29T04:24:10.784Z,13.46
2017-07-29T04:26:38.591Z,13.29
2017-07-29T04:29:06.357Z,13.30
2017-07-29T04:31:34.225Z,13.54
2017-07-29T04:34:01.966Z,13.63
2017-07-29T04:36:29.876Z,13.71
2017-07-29T04:38:57.737Z,13.62
2017-07-29T04:41:25.615Z,13.73
2017-07-29T04:43:53.453Z,13.73
2017-07-29T04:46:21.253Z,13.68
2017-07-29T04:48:49.063Z,13.87
2017-07-29T04:51:17.077Z,13.90
2017-07-29T04:53:44.938Z,13.97
2017-07-29T04:56:12.800Z,13.96
2017-07-29T04:58:40.772Z,14.07
2017-07-29T05:01:08.602Z,13.99
2017-07-29T05:03:36.343Z,13.93
2017-07-29T05:06:04.270Z,13.85
2017-07-29T05:08:32.164Z,13.83
2017-07-29T05:10:59.878Z,13.71
2017-07-29T05:13:27.708Z,13.86
2017-07-29T05:15:55.433Z,13.87
2017-07-29T05:18:23.405Z,13.79
2017-07-29T05:20:51.107Z,13.67
2017-07-29T05:23:18.934Z,13.59
2017-07-29T05:25:46.809Z,13.83
2017-07-29T05:28:14.741Z,13.77
2017-07-29T05:30:42.476Z,13.89
2017-07-29T05:33:10.338Z,14.11
2017-07-29T05:35:38.293Z,14.07
2017-07-29T05:38:06.791Z,14.01
2017-07-29T05:40:34.720Z,14.12
2017-07-29T05:43:02.408Z,13.66
2017-07-29T05:45:30.339Z,13.63
2017-07-29T05:47:58.306Z,13.87
2017-07-29T05:50:26.112Z,14.45
2017-07-29T05:52:53.934Z,14.32
2017-07-29T05:55:21.735Z,14.75
2017-07-29T05:57:49.603Z,14.57
2017-07-29T06:00:17.483Z,14.77
2017-07-29T06:02:45.318Z,15.20
2017-07-29T06:05:13.184Z,15.43
2017-07-29T06:07:40.994Z,15.40
2017-07-29T06:10:08.698Z,15.72
2017-07-29T06:12:36.639Z,15.55
2017-07-29T06:15:04.422Z,15.27
2017-07-29T06:17:33.044Z,15.30
2017-07-29T06:20:00.827Z,15.31
2017-07-29T06:22:28.604Z,15.51
2017-07-29T06:24:56.376Z,15.98
2017-07-29T06:27:24.193Z,16.09
2017-07-29T06:29:52.871Z,16.25
2017-07-29T06:32:20.694Z,16.50
2017-07-29T06:34:49.039Z,16.97
2017-07-29T06:37:16.981Z,17.43
2017-07-29T06:39:45.876Z,17.67
2017-07-29T06:42:13.801Z,17.83
2017-07-29T06:44:46.357Z,17.72
2017-07-29T06:47:14.314Z,17.73
2017-07-29T06:49:42.195Z,18.35
2017-07-29T06:52:10.285Z,18.45
2017-07-29T06:54:38.923Z,18.60
2017-07-29T06:57:07.801Z,18.63
2017-07-29T06:59:36.419Z,18.09
2017-07-29T07:02:05.237Z,18.33
2017-07-29T07:04:33.117Z,18.53
2017-07-29T07:07:01.025Z,18.23
2017-07-29T07:09:29.035Z,18.36
2017-07-29T07:11:56.756Z,18.65
2017-07-29T07:14:24.538Z,19.57
2017-07-29T07:16:52.376Z,19.77
2017-07-29T07:19:21.123Z,20.53
2017-07-29T07:21:48.888Z,20.71
2017-07-29T07:24:16.693Z,20.94
2017-07-29T07:26:44.388Z,21.13
2017-07-29T07:29:12.200Z,20.44
2017-07-29T07:31:39.931Z,20.20
2017-07-29T07:34:07.714Z,20.09
2017-07-29T07:36:35.638Z,20.67
2017-07-29T07:39:03.475Z,20.64
2017-07-29T07:41:31.205Z,20.78
2017-07-29T07:43:59.065Z,21.01
2017-07-29T07:46:26.922Z,20.84
2017-07-29T07:48:54.645Z,20.53
2017-07-29T07:51:22.523Z,20.40
2017-07-29T07:53:50.620Z,20.36
2017-07-29T07:56:18.837Z,20.88
2017-07-29T07:58:46.549Z,21.60
2017-07-29T08:01:14.250Z,21.78
2017-07-29T08:03:42.021Z,21.14
2017-07-29T08:06:09.739Z,21.46
2017-07-29T08:08:37.504Z,21.28
2017-07-29T08:11:05.209Z,21.12
2017-07-29T08:13:32.962Z,20.74
2017-07-29T08:16:00.764Z,21.19
2017-07-29T08:18:28.472Z,21.05
2017-07-29T08:20:56.337Z,21.30
2017-07-29T08:23:24.078Z,21.44
2017-07-29T08:25:51.796Z,21.71
2017-07-29T08:28:19.547Z,21.72
2017-07-29T08:30:47.291Z,22.10
2017-07-29T08:33:15.114Z,21.87
2017-07-29T08:35:42.961Z,22.03
2017-07-29T08:38:10.958Z,22.38
2017-07-29T08:40:38.868Z,22.49
2017-07-29T08:43:06.671Z,22.67
2017-07-29T08:45:34.496Z,22.83
2017-07-29T08:48:02.183Z,22.49
2017-07-29T08:50:29.910Z,22.66
2017-07-29T08:52:57.660Z,22.44
2017-07-29T08:55:25.415Z,22.32
2017-07-29T08:57:53.216Z,23.09
2017-07-29T09:00:21.784Z,22.84
2017-07-29T09:02:49.499Z,22.98
2017-07-29T09:05:17.313Z,22.99
2017-07-29T09:07:45.109Z,23.70
2017-07-29T09:10:12.894Z,23.69
2017-07-29T09:12:41.577Z,23.64
2017-07-29T09:15:09.302Z,23.41
2017-07-29T09:17:37.143Z,23.43
2017-07-29T09:20:04.892Z,23.48
2017-07-29T09:22:32.642Z,23.80
2017-07-29T09:25:00.416Z,24.46
2017-07-29T09:27:28.181Z,23.77
2017-07-29T09:29:55.898Z,24.00
2017-07-29T09:32:23.668Z,24.48
2017-07-29T09:34:51.364Z,24.68
2017-07-29T09:37:19.140Z,24.53
2017-07-29T09:39:46.935Z,24.25
2017-07-29T09:42:14.711Z,23.37
2017-07-29T09:44:42.486Z,24.13
2017-07-29T09:47:10.385Z,24.68
2017-07-29T09:49:38.256Z,24.81
2017-07-29T09:52:05.993Z,25.30
2017-07-29T09:54:33.693Z,25.06
2017-07-29T09:57:01.585Z,25.01
2017-07-29T09:59:29.313Z,25.03
2017-07-29T10:01:57.044Z,25.39
2017-07-29T10:04:24.804Z,25.48
2017-07-29T10:06:52.575Z,25.34
2017-07-29T10:09:20.363Z,25.62
2017-07-29T10:11:48.089Z,25.19
2017-07-29T10:14:15.838Z,24.71
2017-07-29T10:16:43.672Z,24.74
2017-07-29T10:19:11.501Z,25.23
2017-07-29T10:21:39.267Z,25.30
2017-07-29T10:24:07.008Z,25.65
2017-07-29T10:26:34.779Z,26.02
2017-07-29T10:29:02.591Z,26.12
2017-07-29T10:31:30.380Z,25.72
2017-07-29T10:33:58.161Z,26.02
2017-07-29T10:36:25.913Z,25.46
2017-07-29T10:38:53.658Z,25.93
2017-07-29T10:41:21.461Z,26.00
2017-07-29T10:43:49.255Z,26.10
2017-07-29T10:46:16.971Z,26.07
2017-07-29T10:48:44.766Z,26.05
2017-07-29T10:51:12.478Z,26.19
2017-07-29T10:53:40.253Z,26.21
2017-07-29T10:56:08.069Z,26.29
2017-07-29T10:58:35.798Z,26.23
2017-07-29T11:01:03.501Z,26.70
2017-07-29T11:03:31.263Z,26.67
2017-07-29T11:05:59.032Z,26.34
2017-07-29T11:08:26.741Z,26.68
2017-07-29T11:10:54.536Z,26.87
2017-07-29T11:13:22.440Z,26.99
2017-07-29T11:15:50.253Z,26.84
2017-07-29T11:18:18.019Z,27.25
2017-07-29T11:20:45.754Z,27.54
2017-07-29T11:23:13.518Z,27.47
2017-07-29T11:25:41.331Z,27.08
2017-07-29T11:28:09.142Z,27.23
2017-07-29T11:30:36.859Z,27.55
2017-07-29T11:33:04.686Z,27.55
2017-07-29T11:35:32.440Z,27.86
2017-07-29T11:38:00.176Z,27.08
2017-07-29T11:40:27.919Z,27.14
2017-07-29T11:42:56.413Z,27.58
2017-07-29T11:45:24.304Z,27.97
2017-07-29T11:47:52.106Z,27.87
2017-07-29T11:50:19.868Z,27.66
2017-07-29T11:52:47.578Z,27.62
2017-07-29T11:55:15.296Z,27.61
2017-07-29T11:57:43.044Z,27.75
2017-07-29T12:00:10.849Z,27.82
2017-07-29T12:02:38.643Z,27.64
2017-07-29T12:05:06.568Z,27.59
2017-07-29T12:07:34.320Z,27.92
2017-07-29T12:10:02.018Z,28.35
2017-07-29T12:12:29.771Z,28.39
2017-07-29T12:14:57.503Z,28.17
2017-07-29T12:17:25.272Z,28.02
2017-07-29T12:19:52.977Z,28.40
2017-07-29T12:22:20.705Z,28.64
2017-07-29T12:24:48.449Z,28.64
2017-07-29T12:27:16.174Z,28.79
2017-07-29T12:29:43.926Z,28.84
2017-07-29T12:32:11.685Z,29.10
2017-07-29T12:34:39.523Z,28.97
2017-07-29T12:37:07.350Z,29.22
2017-07-29T12:39:36.221Z,29.35
2017-07-29T12:42:04.068Z,29.46
2017-07-29T12:44:32.710Z,29.43
2017-07-29T12:47:01.283Z,28.98
2017-07-29T12:49:29.020Z,29.27
2017-07-29T12:51:56.785Z,29.39
2017-07-29T12:54:24.477Z,29.32
2017-07-29T12:56:52.206Z,29.28
2017-07-29T12:59:20.012Z,28.89
2017-07-29T13:01:47.784Z,29.15
2017-07-29T13:04:15.531Z,29.45
2017-07-29T13:06:43.269Z,29.52
2017-07-29T13:09:10.986Z,29.66
2017-07-29T13:11:38.755Z,29.75
2017-07-29T13:14:06.501Z,29.56
2017-07-29T13:16:34.256Z,29.46
2017-07-29T13:19:03.191Z,29.36
2017-07-29T13:21:30.924Z,29.05
2017-07-29T13:23:58.684Z,29.10
2017-07-29T13:26:26.459Z,29.20
2017-07-29T13:28:54.187Z,29.28
2017-07-29T13:31:21.916Z,29.52
2017-07-29T13:33:49.725Z,29.37
2017-07-29T13:36:17.458Z,29.53
2017-07-29T13:38:45.262Z,29.16
2017-07-29T13:41:13.056Z,29.20
2017-07-29T13:43:40.831Z,29.03
2017-07-29T13:46:08.545Z,28.91
2017-07-29T13:48:36.328Z,28.92
2017-07-29T13:51:04.185Z,29.15
2017-07-29T13:53:31.900Z,29.43
2017-07-29T13:55:59.846Z,29.62
2017-07-29T13:58:27.741Z,29.52
2017-07-29T14:00:55.557Z,29.51
2017-07-29T14:03:23.489Z,29.23
2017-07-29T14:05:51.272Z,29.38
2017-07-29T14:08:19.030Z,29.77
2017-07-29T14:10:46.928Z,29.94
2017-07-29T14:13:14.643Z,29.80
2017-07-29T14:15:42.380Z,29.53
2017-07-29T14:18:10.394Z,29.47
2017-07-29T14:20:38.143Z,29.21
2017-07-29T14:23:05.882Z,29.05
2017-07-29T14:25:34.821Z,29.03
2017-07-29T14:28:02.555Z,29.04
2017-07-29T14:30:30.281Z,29.19
2017-07-29T14:32:58.063Z,28.99
2017-07-29T14:35:26.177Z,29.05
2017-07-29T14:37:53.881Z,28.92
2017-07-29T14:40:21.722Z,28.81
2017-07-29T14:42:49.493Z,28.65
2017-07-29T14:45:17.340Z,28.71
2017-07-29T14:47:45.294Z,28.76
2017-07-29T14:50:13.066Z,28.81
2017-07-29T14:52:40.902Z,28.95
2017-07-29T14:55:08.607Z,28.76
2017-07-29T14:57:36.465Z,28.88
2017-07-29T15:00:04.317Z,28.63
2017-07-29T15:02:32.158Z,28.40
2017-07-29T15:04:59.910Z,28.09
2017-07-29T15:07:27.694Z,28.12
2017-07-29T15:09:55.433Z,28.04
2017-07-29T15:12:23.256Z,27.79
2017-07-29T15:14:51.035Z,27.70
2017-07-29T15:17:18.836Z,28.02
2017-07-29T15:19:46.596Z,28.19
2017-07-29T15:22:14.313Z,28.38
2017-07-29T15:24:42.085Z,28.49
2017-07-29T15:27:09.909Z,28.55
2017-07-29T15:29:37.782Z,28.76
2017-07-29T15:32:05.558Z,28.56
2017-07-29T15:34:33.395Z,28.42
2017-07-29T15:37:01.155Z,28.30
2017-07-29T15:39:28.954Z,28.36
2017-07-29T15:41:59.566Z,28.04
2017-07-29T15:44:27.618Z,27.78
2017-07-29T15:46:55.344Z,27.46
2017-07-29T15:49:23.114Z,27.17
2017-07-29T15:51:50.894Z,27.10
2017-07-29T15:54:18.638Z,26.97
2017-07-29T15:56:46.411Z,26.85
2017-07-29T15:59:14.165Z,26.66
2017-07-29T16:01:41.992Z,26.47
2017-07-29T16:04:09.796Z,26.59
2017-07-29T16:06:37.561Z,26.61
2017-07-29T16:09:05.434Z,26.52
2017-07-29T16:11:33.411Z,26.37
2017-07-29T16:14:01.271Z,26.39
2017-07-29T16:16:29.264Z,26.24
2017-07-29T16:18:57.078Z,26.24
2017-07-29T16:21:25.001Z,26.21
2017-07-29T16:23:52.772Z,26.20
2017-07-29T16:26:20.527Z,26.22
2017-07-29T16:28:48.308Z,26.35
2017-07-29T16:31:16.313Z,26.01
2017-07-29T16:33:44.179Z,26.27
2017-07-29T16:36:12.060Z,26.21
2017-07-29T16:38:41.253Z,26.34
2017-07-29T16:41:09.605Z,26.45
2017-07-29T16:43:37.414Z,26.58
2017-07-29T16:46:05.232Z,26.59
2017-07-29T16:48:32.994Z,26.46
2017-07-29T16:51:00.768Z,26.36
2017-07-29T16:53:28.628Z,26.19
2017-07-29T16:55:56.711Z,26.02
2017-07-29T16:58:24.523Z,25.88
2017-07-29T17:00:52.394Z,25.73
2017-07-29T17:03:20.935Z,25.48
2017-07-29T17:05:48.758Z,25.18
2017-07-29T17:08:16.621Z,24.90
2017-07-29T17:10:44.520Z,24.89
2017-07-29T17:13:12.319Z,24.77
2017-07-29T17:15:40.061Z,24.68
2017-07-29T17:18:07.947Z,24.50
2017-07-29T17:20:35.711Z,24.36
2017-07-29T17:23:03.634Z,24.28
2017-07-29T17:25:32.196Z,24.28
2017-07-29T17:28:00.927Z,24.07
2017-07-29T17:30:28.987Z,24.11
2017-07-29T17:32:56.699Z,23.94
2017-07-29T17:35:24.522Z,23.85
2017-07-29T17:37:52.241Z,23.83
2017-07-29T17:40:20.169Z,23.65
2017-07-29T17:42:47.868Z,23.61
2017-07-29T17:45:15.566Z,23.48
2017-07-29T17:47:43.394Z,23.49
2017-07-29T17:50:11.195Z,23.49
2017-07-29T17:52:39.130Z,23.40
2017-07-29T17:55:07.058Z,23.40
2017-07-29T17:57:34.785Z,23.37
2017-07-29T18:00:02.598Z,23.45
2017-07-29T18:02:30.346Z,23.29
2017-07-29T18:04:58.364Z,23.18
2017-07-29T18:07:26.610Z,23.24
2017-07-29T18:09:54.384Z,23.10
2017-07-29T18:12:22.179Z,22.98
2017-07-29T18:14:50.221Z,22.84
2017-07-29T18:17:18.129Z,22.73
2017-07-29T18:19:45.940Z,22.55
2017-07-29T18:22:13.661Z,22.49
2017-07-29T18:24:41.711Z,22.40
2017-07-29T18:27:10.324Z,22.28
2017-07-29T18:29:38.400Z,22.31
2017-07-29T18:32:06.410Z,22.15
2017-07-29T18:34:34.783Z,22.07
2017-07-29T18:37:02.724Z,21.92
2017-07-29T18:39:30.916Z,21.90
2017-07-29T18:41:58.797Z,21.89
2017-07-29T18:44:26.568Z,21.78
2017-07-29T18:46:54.411Z,21.73
2017-07-29T18:49:23.120Z,21.82
2017-07-29T18:51:50.895Z,21.82
2017-07-29T18:54:18.661Z,21.72
2017-07-29T18:56:46.509Z,21.57
2017-07-29T18:59:14.714Z,21.44
2017-07-29T19:01:42.457Z,21.45
2017-07-29T19:04:10.261Z,21.27
2017-07-29T19:06:38.038Z,21.28
2017-07-29T19:09:06.110Z,21.23
2017-07-29T19:11:33.995Z,21.13
2017-07-29T19:14:03.262Z,21.26
2017-07-29T19:16:31.010Z,21.22
2017-07-29T19:18:58.742Z,21.05
2017-07-29T19:21:26.540Z,20.90
2017-07-29T19:23:54.278Z,20.88
2017-07-29T19:26:22.050Z,20.92
2017-07-29T19:28:49.844Z,20.73
2017-07-29T19:31:17.702Z,20.79
2017-07-29T19:33:46.409Z,20.68
2017-07-29T19:36:14.231Z,20.83
2017-07-29T19:38:42.094Z,20.73
2017-07-29T19:41:10.570Z,20.69
2017-07-29T19:43:38.741Z,20.72
2017-07-29T19:46:06.496Z,20.65
2017-07-29T19:48:34.300Z,20.62
2017-07-29T19:51:02.576Z,20.51
2017-07-29T19:53:30.367Z,20.52
2017-07-29T19:55:58.164Z,20.47
2017-07-29T19:58:26.406Z,20.48
2017-07-29T20:00:54.102Z,20.22
2017-07-29T20:03:21.887Z,20.26
2017-07-29T20:05:49.761Z,20.08
2017-07-29T20:08:17.445Z,20.09
2017-07-29T20:10:45.242Z,20.22
2017-07-29T20:13:12.986Z,20.22
2017-07-29T20:15:40.784Z,20.15
2017-07-29T20:18:08.492Z,20.10
2017-07-29T20:20:36.484Z,20.06
2017-07-29T20:23:04.266Z,19.99
2017-07-29T20:25:32.008Z,19.99
2017-07-29T20:27:59.853Z,19.92
2017-07-29T20:30:27.620Z,19.88
2017-07-29T20:32:55.430Z,19.83
2017-07-29T20:35:23.136Z,19.73
2017-07-29T20:37:51.016Z,19.77
2017-07-29T20:40:18.731Z,19.79
2017-07-29T20:42:46.514Z,19.81
2017-07-29T20:45:14.317Z,19.76
2017-07-29T20:47:42.372Z,19.68
2017-07-29T20:50:10.155Z,19.73
2017-07-29T20:52:38.003Z,19.66
2017-07-29T20:55:05.793Z,19.61
2017-07-29T20:57:33.675Z,19.53
2017-07-29T21:00:01.450Z,19.36
2017-07-29T21:02:29.152Z,19.26
2017-07-29T21:04:56.914Z,19.32
2017-07-29T21:07:24.696Z,19.43
2017-07-29T21:09:52.419Z,19.29
2017-07-29T21:12:20.134Z,19.14
2017-07-29T21:14:47.928Z,19.19
2017-07-29T21:17:15.703Z,19.14
2017-07-29T21:19:43.569Z,19.10
2017-07-29T21:22:11.363Z,19.06
2017-07-29T21:24:39.075Z,19.03
2017-07-29T21:27:06.799Z,19.06
2017-07-29T21:29:34.623Z,19.08
2017-07-29T21:32:02.752Z,18.91
2017-07-29T21:34:31.708Z,18.98
2017-07-29T21:36:59.461Z,18.89
2017-07-29T21:39:27.183Z,18.91
2017-07-29T21:41:55.039Z,18.95
2017-07-29T21:44:23.110Z,18.86
2017-07-29T21:46:50.825Z,18.78
2017-07-29T21:49:18.840Z,18.71
2017-07-29T21:51:47.194Z,18.63
2017-07-29T21:54:14.912Z,18.59
2017-07-29T21:56:42.691Z,18.67
2017-07-29T21:59:10.438Z,18.67
2017-07-29T22:01:38.237Z,18.66
2017-07-29T22:04:06.281Z,18.63
2017-07-29T22:06:34.012Z,18.55
2017-07-29T22:09:01.745Z,18.41
2017-07-29T22:11:29.569Z,18.37
2017-07-29T22:13:57.325Z,18.49
2017-07-29T22:16:25.050Z,18.43
2017-07-29T22:18:52.749Z,18.30
2017-07-29T22:21:20.496Z,18.25
2017-07-29T22:23:49.210Z,18.29
2017-07-29T22:26:17.055Z,18.11
2017-07-29T22:28:44.766Z,18.20
2017-07-29T22:31:12.458Z,18.26
2017-07-29T22:33:40.219Z,18.27
2017-07-29T22:36:08.022Z,18.26
2017-07-29T22:38:35.787Z,18.04
2017-07-29T22:41:03.580Z,18.08
2017-07-29T22:43:31.324Z,18.05
2017-07-29T22:45:59.072Z,18.10
2017-07-29T22:48:26.775Z,18.08
2017-07-29T22:50:54.790Z,17.99
2017-07-29T22:53:22.586Z,17.79
2017-07-29T22:55:51.525Z,17.78
2017-07-29T22:58:19.236Z,17.85
2017-07-29T23:00:46.925Z,17.92
2017-07-29T23:03:14.676Z,17.97
2017-07-29T23:05:42.365Z,17.98
2017-07-29T23:08:10.126Z,17.91
2017-07-29T23:10:37.864Z,17.75
2017-07-29T23:13:05.624Z,17.70
2017-07-29T23:15:33.452Z,17.68
2017-07-29T23:18:01.212Z,17.75
2017-07-29T23:20:28.972Z,17.78
2017-07-29T23:22:56.750Z,17.77
2017-07-29T23:25:24.543Z,17.78
2017-07-29T23:27:52.579Z,17.78
2017-07-29T23:30:20.431Z,17.63
2017-07-29T23:32:48.217Z,17.76
2017-07-29T23:35:15.935Z,17.70
2017-07-29T23:37:43.687Z,17.55
2017-07-29T23:40:11.522Z,17.52
2017-07-29T23:42:39.333Z,17.57
2017-07-29T23:45:07.133Z,17.39
2017-07-29T23:47:34.967Z,17.39
2017-07-29T23:50:03.270Z,17.45
2017-07-29T23:52:31.179Z,17.38
2017-07-29T23:54:59.270Z,17.38
2017-07-29T23:57:26.952Z,17.33
2017-07-29T23:59:54.997Z,17.35
